メインページ
METAR-TAF:

METAR-TAF

空港 :

ウラジオストク, ロシア

ウラジオストク国際空港

緯度: 43-07N, 経度: 131-56E, 海抜: 184m

現時点の気象観測

当レポートは35分前の12:30(UTC)に作成
北西の風 4kt
気温 -11°C
湿度 40%
気圧 1022 hPa
視程10km以上

METAR: UHWW 241230Z 32002MPS 9999 NSC M11/M22 Q1022 R25L/0///70 NOSIG RMK QFE765

時間: 23:05 (13:05 UTC)

予報

当レポートは2時間15分前の10:50(UTC)に作成
予報は24日の 12時(UTC)から 25日の 12時(UTC)まで有効
北/北西の風 6kt
視程10km以上
25日の 01時(UTC)から 25日の 03時(UTC)まで徐々に
南西の風 6kt
高度2000ftの千切れ雲あり
25日の 04時(UTC)から 25日の 06時(UTC)まで徐々に
視程: 3500m
高度1500ftの千切れ雲あり, 積乱雲.
弱いにわか雪
25日の 08時(UTC)から 25日の 10時(UTC)まで徐々に
の風 6kt

TAF: UHWW 241050Z 2412/2512 34003MPS 9999 NSC BECMG 2501/2503 22003MPS BKN020 BECMG 2504/2506 3500 -SHSN BKN015CB BECMG 2508/2510 35003MPS

4,000以上の空港の気象観測と天気予報(METAR報とTAF報)

利用可能な観測所は地図上に黄色い丸と赤い丸で示す。

丸の上にカーソルを重ねると観測所名を参照できる。

次にクリックすると気象観測と天気予報を参照できる。

マップの切り替え:黒色「×」印の緑ボタンをクリックして拡大、「-」印の緑ボタンをクリックして縮小、緑色の三角印をクリックして隣りの地図に切り替え


METAR-TAF: